createdAt,value
2019-03-10T00:02:06.148Z,100224.88
2019-03-10T00:04:35.579Z,100234.98
2019-03-10T00:07:05.094Z,100239.37
2019-03-10T00:09:34.554Z,100243.30
2019-03-10T00:12:04.702Z,100239.85
2019-03-10T00:14:34.306Z,100243.48
2019-03-10T00:17:04.425Z,100250.08
2019-03-10T00:19:36.669Z,100249.73
2019-03-10T00:22:06.377Z,100254.00
2019-03-10T00:24:35.861Z,100248.34
2019-03-10T00:27:05.491Z,100240.28
2019-03-10T00:29:35.127Z,100221.66
2019-03-10T00:32:04.682Z,100234.67
2019-03-10T00:34:34.169Z,100232.75
2019-03-10T00:37:04.488Z,100222.08
2019-03-10T00:39:45.715Z,100207.84
2019-03-10T00:42:33.488Z,100210.24
2019-03-10T00:45:24.169Z,100209.02
2019-03-10T00:48:28.505Z,100206.89
2019-03-10T00:51:23.604Z,100203.05
2019-03-10T00:53:53.029Z,100209.78
2019-03-10T00:56:23.585Z,100210.80
2019-03-10T00:58:53.116Z,100212.25
2019-03-10T01:01:22.546Z,100213.57
2019-03-10T01:03:52.036Z,100211.30
2019-03-10T01:06:21.813Z,100210.02
2019-03-10T01:08:51.334Z,100206.10
2019-03-10T01:11:20.817Z,100207.95
2019-03-10T01:13:50.407Z,100199.14
2019-03-10T01:16:20.002Z,100200.45
2019-03-10T01:18:50.254Z,100197.29
2019-03-10T01:21:20.427Z,100198.02
2019-03-10T01:23:49.913Z,100193.99
2019-03-10T01:26:19.359Z,100192.95
2019-03-10T01:28:48.818Z,100197.19
2019-03-10T01:31:27.266Z,100193.97
2019-03-10T01:34:15.941Z,100189.91
2019-03-10T01:36:45.443Z,100177.06
2019-03-10T01:39:15.066Z,100180.83
2019-03-10T01:41:44.560Z,100178.14
2019-03-10T01:44:14.042Z,100172.77
2019-03-10T01:46:43.478Z,100172.73
2019-03-10T01:49:12.967Z,100167.86
2019-03-10T01:51:43.460Z,100169.17
2019-03-10T01:54:13.020Z,100161.69
2019-03-10T01:56:42.473Z,100161.30
2019-03-10T01:59:11.960Z,100165.75
2019-03-10T02:01:41.434Z,100157.06
2019-03-10T02:04:10.913Z,100167.63
2019-03-10T02:06:40.638Z,100151.01
2019-03-10T02:09:11.209Z,100147.58
2019-03-10T02:11:40.728Z,100134.86
2019-03-10T02:14:10.218Z,100129.22
2019-03-10T02:16:39.661Z,100120.98
2019-03-10T02:19:09.157Z,100126.77
2019-03-10T02:21:38.733Z,100121.16
2019-03-10T02:24:08.204Z,100114.61
2019-03-10T02:26:37.696Z,100106.76
2019-03-10T02:29:07.129Z,100111.18
2019-03-10T02:31:36.585Z,100100.67
2019-03-10T02:34:06.071Z,100100.16
2019-03-10T02:36:35.497Z,100091.84
2019-03-10T02:39:06.588Z,100088.73
2019-03-10T02:41:36.108Z,100093.12
2019-03-10T02:44:05.581Z,100078.14
2019-03-10T02:46:35.033Z,100091.81
2019-03-10T02:49:04.623Z,100089.58
2019-03-10T02:51:34.061Z,100097.87
2019-03-10T02:54:04.547Z,100103.09
2019-03-10T02:56:34.111Z,100104.50
2019-03-10T02:59:04.455Z,100109.53
2019-03-10T03:01:33.892Z,100107.88
2019-03-10T03:04:03.413Z,100093.17
2019-03-10T03:06:32.850Z,100085.00
2019-03-10T03:09:02.342Z,100092.13
2019-03-10T03:11:33.379Z,100090.05
2019-03-10T03:14:02.849Z,100087.59
2019-03-10T03:16:32.287Z,100082.42
2019-03-10T03:19:01.760Z,100088.25
2019-03-10T03:21:42.268Z,100082.16
2019-03-10T03:24:03.719Z,100070.80
2019-03-10T03:26:33.224Z,100071.74
2019-03-10T03:29:02.742Z,100059.02
2019-03-10T03:31:32.178Z,100039.66
2019-03-10T03:34:01.833Z,100029.94
2019-03-10T03:36:33.499Z,100027.71
2019-03-10T03:39:15.244Z,100026.39
2019-03-10T03:41:44.725Z,100031.21
2019-03-10T03:44:14.156Z,100036.05
2019-03-10T03:46:43.617Z,100028.14
2019-03-10T03:49:13.152Z,100025.02
2019-03-10T03:51:43.604Z,100039.47
2019-03-10T03:54:13.132Z,100036.83
2019-03-10T03:56:42.640Z,100028.06
2019-03-10T03:59:12.188Z,100026.73
2019-03-10T04:01:52.127Z,100018.00
2019-03-10T04:04:21.720Z,100023.72
2019-03-10T04:06:51.163Z,100008.84
2019-03-10T04:09:21.094Z,99998.34
2019-03-10T04:11:50.525Z,100004.50
2019-03-10T04:14:20.071Z,100003.63
2019-03-10T04:16:49.509Z,99997.05
2019-03-10T04:19:18.962Z,99995.31
2019-03-10T04:21:48.397Z,100000.17
2019-03-10T04:24:17.869Z,99988.78
2019-03-10T04:26:47.335Z,99990.12
2019-03-10T04:29:17.202Z,99976.57
2019-03-10T04:31:46.634Z,99973.50
2019-03-10T04:34:16.100Z,99959.45
2019-03-10T04:36:45.540Z,99953.30
2019-03-10T04:39:14.997Z,99955.94
2019-03-10T04:41:44.431Z,99951.99
2019-03-10T04:44:13.904Z,99937.96
2019-03-10T04:46:43.360Z,99932.70
2019-03-10T04:49:12.832Z,99923.06
2019-03-10T04:51:42.272Z,99919.09
2019-03-10T04:54:11.743Z,99916.92
2019-03-10T04:56:42.825Z,99926.55
2019-03-10T04:59:12.313Z,99912.98
2019-03-10T05:01:41.771Z,99909.48
2019-03-10T05:04:11.257Z,99902.46
2019-03-10T05:06:40.752Z,99896.34
2019-03-10T05:09:10.826Z,99892.44
2019-03-10T05:11:40.378Z,99888.55
2019-03-10T05:14:09.843Z,99874.54
2019-03-10T05:16:39.276Z,99878.97
2019-03-10T05:19:08.742Z,99873.75
2019-03-10T05:21:38.222Z,99867.19
2019-03-10T05:24:09.472Z,99866.36
2019-03-10T05:26:38.944Z,99864.23
2019-03-10T05:29:08.549Z,99863.39
2019-03-10T05:31:38.044Z,99849.90
2019-03-10T05:34:07.460Z,99849.92
2019-03-10T05:36:36.935Z,99847.33
2019-03-10T05:39:07.187Z,99841.22
2019-03-10T05:41:36.661Z,99835.55
2019-03-10T05:44:06.171Z,99827.67
2019-03-10T05:46:35.772Z,99821.55
2019-03-10T05:49:05.216Z,99818.06
2019-03-10T05:51:34.688Z,99811.98
2019-03-10T05:54:05.248Z,99801.88
2019-03-10T05:56:34.721Z,99800.55
2019-03-10T05:59:04.391Z,99795.73
2019-03-10T06:01:33.867Z,99793.11
2019-03-10T06:04:03.281Z,99793.59
2019-03-10T06:06:32.768Z,99793.17
2019-03-10T06:09:02.370Z,99789.66
2019-03-10T06:11:33.617Z,99788.40
2019-03-10T06:14:03.168Z,99782.67
2019-03-10T06:16:32.634Z,99780.06
2019-03-10T06:19:02.094Z,99777.47
2019-03-10T06:21:32.037Z,99779.66
2019-03-10T06:24:01.610Z,99765.67
2019-03-10T06:26:31.116Z,99763.55
2019-03-10T06:29:01.525Z,99760.98
2019-03-10T06:31:31.024Z,99753.52
2019-03-10T06:34:00.457Z,99752.20
2019-03-10T06:36:29.918Z,99754.81
2019-03-10T06:38:59.387Z,99750.45
2019-03-10T06:41:28.865Z,99746.11
2019-03-10T06:43:58.299Z,99747.91
2019-03-10T06:46:27.776Z,99743.98
2019-03-10T06:48:57.444Z,99744.49
2019-03-10T06:51:26.920Z,99736.66
2019-03-10T06:53:57.345Z,99728.82
2019-03-10T06:56:26.826Z,99721.78
2019-03-10T06:58:56.291Z,99717.88
2019-03-10T07:01:25.734Z,99713.09
2019-03-10T07:03:55.166Z,99713.14
2019-03-10T07:06:24.733Z,99704.36
2019-03-10T07:08:54.165Z,99701.77
2019-03-10T07:11:23.605Z,99693.88
2019-03-10T07:13:53.080Z,99690.39
2019-03-10T07:16:23.521Z,99685.06
2019-03-10T07:18:52.979Z,99679.32
2019-03-10T07:21:22.723Z,99676.25
2019-03-10T07:23:52.193Z,99672.31
2019-03-10T07:26:21.736Z,99674.54
2019-03-10T07:29:04.643Z,99668.02
2019-03-10T07:31:44.934Z,99661.06
2019-03-10T07:34:34.382Z,99652.37
2019-03-10T07:37:15.209Z,99652.03
2019-03-10T07:39:46.450Z,99652.08
2019-03-10T07:42:17.551Z,99657.31
2019-03-10T07:44:48.609Z,99641.98
2019-03-10T07:47:25.229Z,99640.73
2019-03-10T07:50:12.683Z,99636.83
2019-03-10T07:52:46.682Z,99634.19
2019-03-10T07:55:17.741Z,99623.58
2019-03-10T07:57:54.568Z,99624.02
2019-03-10T08:00:28.570Z,99620.48
2019-03-10T08:03:05.657Z,99618.71
2019-03-10T08:05:39.489Z,99610.73
2019-03-10T08:08:28.524Z,99608.55
2019-03-10T08:11:02.241Z,99605.49
2019-03-10T08:13:33.753Z,99603.70
2019-03-10T08:16:13.634Z,99608.95
2019-03-10T08:18:44.757Z,99601.47
2019-03-10T08:21:28.110Z,99599.25
2019-03-10T08:23:59.251Z,99606.70
2019-03-10T08:26:45.485Z,99602.31
2019-03-10T08:29:22.587Z,99600.95
2019-03-10T08:32:05.495Z,99602.66
2019-03-10T08:34:39.251Z,99599.16
2019-03-10T08:37:28.675Z,99590.79
2019-03-10T08:40:17.701Z,99589.38
2019-03-10T08:42:49.735Z,99581.80
2019-03-10T08:45:20.991Z,99574.78
2019-03-10T08:47:58.953Z,99576.91
2019-03-10T08:50:30.021Z,99571.63
2019-03-10T08:53:01.135Z,99565.47
2019-03-10T08:55:47.313Z,99568.09
2019-03-10T08:58:24.551Z,99562.78
2019-03-10T09:01:13.903Z,99563.67
2019-03-10T09:03:45.253Z,99562.37
2019-03-10T09:06:22.185Z,99551.82
2019-03-10T09:08:59.138Z,99544.81
2019-03-10T09:11:45.624Z,99546.17
2019-03-10T09:14:16.944Z,99541.39
2019-03-10T09:16:48.176Z,99535.31
2019-03-10T09:19:19.328Z,99538.80
2019-03-10T09:22:00.349Z,99527.84
2019-03-10T09:24:43.639Z,99525.20
2019-03-10T09:27:14.774Z,99513.81
2019-03-10T09:30:02.493Z,99503.31
2019-03-10T09:32:38.696Z,99505.52
2019-03-10T09:35:12.613Z,99498.05
2019-03-10T09:37:52.707Z,99485.72
2019-03-10T09:40:24.403Z,99484.84
2019-03-10T09:42:55.586Z,99469.52
2019-03-10T09:45:29.538Z,99459.44
2019-03-10T09:48:00.740Z,99460.36
2019-03-10T09:50:34.500Z,99450.67
2019-03-10T09:53:15.523Z,99451.11
2019-03-10T09:55:55.420Z,99455.48
2019-03-10T09:58:35.683Z,99442.28
2019-03-10T10:01:24.899Z,99438.76
2019-03-10T10:03:57.206Z,99432.63
2019-03-10T10:06:28.365Z,99425.12
2019-03-10T10:09:00.007Z,99421.17
2019-03-10T10:11:31.077Z,99416.36
2019-03-10T10:14:07.810Z,99403.64
2019-03-10T10:16:51.011Z,99390.94
2019-03-10T10:19:37.234Z,99390.50
2019-03-10T10:22:17.382Z,99390.94
2019-03-10T10:24:48.988Z,99378.65
2019-03-10T10:27:25.826Z,99376.45
2019-03-10T10:30:02.534Z,99372.05
2019-03-10T10:32:43.480Z,99370.72
2019-03-10T10:35:14.847Z,99367.20
2019-03-10T10:37:49.413Z,99361.50
2019-03-10T10:40:20.658Z,99359.30
2019-03-10T10:43:04.974Z,99341.72
2019-03-10T10:45:54.786Z,99330.30
2019-03-10T10:48:26.483Z,99320.65
2019-03-10T10:51:03.545Z,99311.86
2019-03-10T10:53:34.786Z,99311.87
2019-03-10T10:56:22.519Z,99298.67
2019-03-10T10:58:54.714Z,99287.71
2019-03-10T11:01:32.066Z,99282.42
2019-03-10T11:04:15.487Z,99281.54
2019-03-10T11:06:58.429Z,99282.88
2019-03-10T11:09:32.144Z,99285.94
2019-03-10T11:12:03.352Z,99281.98
2019-03-10T11:14:34.553Z,99275.83
2019-03-10T11:17:12.286Z,99266.18
2019-03-10T11:19:43.511Z,99264.86
2019-03-10T11:22:32.594Z,99250.37
2019-03-10T11:25:06.719Z,99250.79
2019-03-10T11:27:37.775Z,99243.31
2019-03-10T11:30:21.412Z,99232.32
2019-03-10T11:32:55.676Z,99227.47
2019-03-10T11:35:26.888Z,99228.81
2019-03-10T11:38:16.002Z,99223.57
2019-03-10T11:40:56.401Z,99219.19
2019-03-10T11:43:33.411Z,99225.75
2019-03-10T11:46:22.201Z,99221.37
2019-03-10T11:48:59.262Z,99210.41
2019-03-10T11:51:30.528Z,99214.33
2019-03-10T11:54:01.883Z,99206.41
2019-03-10T11:56:42.394Z,99196.27
2019-03-10T11:59:13.571Z,99196.27
2019-03-10T12:01:48.051Z,99187.89
2019-03-10T12:07:40.480Z,99167.66
2019-03-10T12:10:11.830Z,99162.78
2019-03-10T12:12:52.295Z,99156.59
2019-03-10T12:15:33.016Z,99144.21
2019-03-10T12:18:02.535Z,99130.91
2019-03-10T12:20:32.154Z,99136.20
2019-03-10T12:23:01.579Z,99134.03
2019-03-10T12:25:32.180Z,99131.84
2019-03-10T12:28:01.597Z,99135.84
2019-03-10T12:30:31.230Z,99137.23
2019-03-10T12:33:00.721Z,99129.88
2019-03-10T12:35:34.743Z,99122.00
2019-03-10T12:38:03.720Z,99120.73
2019-03-10T12:40:40.400Z,99114.63
2019-03-10T12:43:09.846Z,99110.74
2019-03-10T12:45:39.610Z,99096.25
2019-03-10T12:48:09.230Z,99079.14
2019-03-10T12:50:38.799Z,99072.08
2019-03-10T12:53:08.222Z,99062.80
2019-03-10T12:55:37.834Z,99061.88
2019-03-10T12:58:07.261Z,99056.58
2019-03-10T13:00:36.839Z,99053.44
2019-03-10T13:03:06.367Z,99060.91
2019-03-10T13:05:35.821Z,99055.32
2019-03-10T13:08:05.371Z,99043.98
2019-03-10T13:10:34.858Z,99036.11
2019-03-10T13:13:04.343Z,99031.75
2019-03-10T13:15:34.143Z,99021.27
2019-03-10T13:18:03.561Z,99016.42
2019-03-10T13:20:34.104Z,99019.50
2019-03-10T13:23:04.627Z,99016.44
2019-03-10T13:25:34.272Z,99012.50
2019-03-10T13:28:04.334Z,99007.67
2019-03-10T13:30:33.891Z,98996.27
2019-03-10T13:33:04.445Z,98998.90
2019-03-10T13:35:34.083Z,98985.33
2019-03-10T13:38:04.410Z,98987.95
2019-03-10T13:40:34.100Z,98981.36
2019-03-10T13:43:07.178Z,98980.94
2019-03-10T13:45:36.805Z,98971.28
2019-03-10T13:48:06.377Z,98964.27
2019-03-10T13:50:35.863Z,98954.61
2019-03-10T13:53:05.709Z,98952.00
2019-03-10T13:55:35.318Z,98941.48
2019-03-10T13:58:04.891Z,98942.78
2019-03-10T14:00:34.469Z,98923.95
2019-03-10T14:03:04.451Z,98919.57
2019-03-10T14:05:34.335Z,98908.17
2019-03-10T14:08:04.661Z,98891.95
2019-03-10T14:10:34.209Z,98887.56
2019-03-10T14:13:04.637Z,98881.00
2019-03-10T14:15:34.227Z,98881.46
2019-03-10T14:18:04.810Z,98875.34
2019-03-10T14:20:34.442Z,98867.89
2019-03-10T14:23:04.489Z,98866.13
2019-03-10T14:25:33.940Z,98872.70
2019-03-10T14:28:04.866Z,98868.74
2019-03-10T14:30:34.519Z,98860.00
2019-03-10T14:33:06.379Z,98854.30
2019-03-10T14:35:35.876Z,98851.25
2019-03-10T14:38:05.578Z,98855.61
2019-03-10T14:40:35.301Z,98852.53
2019-03-10T14:43:06.612Z,98848.13
2019-03-10T14:45:36.075Z,98849.00
2019-03-10T14:48:05.786Z,98849.86
2019-03-10T14:50:35.402Z,98854.20
2019-03-10T14:53:05.209Z,98853.78
2019-03-10T14:55:34.667Z,98848.95
2019-03-10T14:58:04.584Z,98841.08
2019-03-10T15:00:34.091Z,98812.20
2019-03-10T15:03:10.368Z,98803.47
2019-03-10T15:05:40.057Z,98805.23
2019-03-10T15:08:09.852Z,98808.72
2019-03-10T15:10:39.566Z,98803.05
2019-03-10T15:13:22.035Z,98803.45
2019-03-10T15:15:51.551Z,98813.06
2019-03-10T15:18:21.867Z,98813.49
2019-03-10T15:20:51.470Z,98801.69
2019-03-10T15:23:21.340Z,98798.63
2019-03-10T15:25:50.932Z,98793.36
2019-03-10T15:28:20.548Z,98794.22
2019-03-10T15:30:50.599Z,98774.11
2019-03-10T15:33:20.582Z,98765.36
2019-03-10T15:35:50.240Z,98745.66
2019-03-10T15:38:19.877Z,98745.18
2019-03-10T15:40:51.097Z,98745.61
2019-03-10T15:43:20.765Z,98748.63
2019-03-10T15:45:50.337Z,98739.45
2019-03-10T15:48:20.091Z,98747.75
2019-03-10T15:50:49.766Z,98748.63
2019-03-10T15:53:19.305Z,98737.28
2019-03-10T15:55:48.778Z,98747.75
2019-03-10T15:58:18.728Z,98756.47
2019-03-10T16:00:48.715Z,98769.12
2019-03-10T16:03:18.351Z,98765.61
2019-03-10T16:05:47.949Z,98764.33
2019-03-10T16:08:17.577Z,98780.91
2019-03-10T16:10:47.182Z,98780.91
2019-03-10T16:13:16.839Z,98787.00
2019-03-10T16:15:46.282Z,98806.16
2019-03-10T16:18:15.873Z,98808.71
2019-03-10T16:20:45.372Z,98802.05
2019-03-10T16:23:14.982Z,98807.65
2019-03-10T16:25:44.486Z,98825.09
2019-03-10T16:28:14.083Z,98831.56
2019-03-10T16:30:44.047Z,98841.95
2019-03-10T16:33:13.711Z,98850.16
2019-03-10T16:35:43.281Z,98865.76
2019-03-10T16:38:12.852Z,98866.06
2019-03-10T16:40:42.369Z,98872.92
2019-03-10T16:43:11.968Z,98875.86
2019-03-10T16:45:41.538Z,98894.19
2019-03-10T16:48:11.135Z,98878.48
2019-03-10T16:50:40.795Z,98880.23
2019-03-10T16:53:10.436Z,98884.92
2019-03-10T16:55:40.103Z,98879.27
2019-03-10T16:58:09.729Z,98898.45
2019-03-10T17:00:39.357Z,98890.20
2019-03-10T17:03:09.251Z,98900.19
2019-03-10T17:05:39.152Z,98908.45
2019-03-10T17:08:08.828Z,98908.34
2019-03-10T17:10:38.457Z,98912.64
2019-03-10T17:13:08.099Z,98924.72
2019-03-10T17:15:37.658Z,98926.86
2019-03-10T17:18:07.742Z,98949.93
2019-03-10T17:20:38.348Z,98968.05
2019-03-10T17:23:07.917Z,98968.56
2019-03-10T17:25:37.350Z,98988.86
2019-03-10T17:28:06.860Z,98993.01
2019-03-10T17:30:36.446Z,99002.72
2019-03-10T17:33:05.937Z,99011.02
2019-03-10T17:35:35.592Z,99021.42
2019-03-10T17:38:05.179Z,99031.47
2019-03-10T17:40:34.877Z,99051.17
2019-03-10T17:43:04.539Z,99062.56
2019-03-10T17:45:33.985Z,99062.36
2019-03-10T17:48:04.807Z,99078.27
2019-03-10T17:50:34.682Z,99089.69
2019-03-10T17:53:07.251Z,99094.30
2019-03-10T17:55:35.791Z,99098.55
2019-03-10T17:58:05.525Z,99127.56
2019-03-10T18:00:36.122Z,99141.96
2019-03-10T18:03:05.904Z,99142.47
2019-03-10T18:05:35.458Z,99146.69
2019-03-10T18:08:05.033Z,99163.77
2019-03-10T18:10:34.634Z,99180.73
2019-03-10T18:13:04.911Z,99206.38
2019-03-10T18:15:34.444Z,99214.16
2019-03-10T18:18:04.621Z,99240.22
2019-03-10T18:20:34.052Z,99269.25
2019-03-10T18:23:04.468Z,99289.23
2019-03-10T18:25:33.900Z,99308.70
2019-03-10T18:28:06.189Z,99324.70
2019-03-10T18:30:35.713Z,99350.42
2019-03-10T18:33:07.441Z,99376.10
2019-03-10T18:35:37.189Z,99401.59
2019-03-10T18:38:06.712Z,99425.19
2019-03-10T18:40:36.341Z,99456.73
2019-03-10T18:43:06.078Z,99478.16
2019-03-10T18:45:35.760Z,99495.70
2019-03-10T18:48:05.580Z,99520.37
2019-03-10T18:50:36.039Z,99541.80
2019-03-10T18:53:05.612Z,99561.02
2019-03-10T18:55:35.781Z,99575.39
2019-03-10T18:58:05.943Z,99589.15
2019-03-10T19:00:35.796Z,99604.25
2019-03-10T19:03:06.314Z,99613.33
2019-03-10T19:05:36.228Z,99630.31
2019-03-10T19:08:05.793Z,99638.25
2019-03-10T19:10:35.403Z,99650.11
2019-03-10T19:13:05.124Z,99660.30
2019-03-10T19:15:34.821Z,99676.13
2019-03-10T19:18:05.328Z,99680.52
2019-03-10T19:20:34.898Z,99686.14
2019-03-10T19:23:04.481Z,99701.88
2019-03-10T19:25:34.110Z,99716.38
2019-03-10T19:28:04.386Z,99726.13
2019-03-10T19:30:34.386Z,99728.59
2019-03-10T19:33:05.321Z,99735.95
2019-03-10T19:35:36.565Z,99753.25
2019-03-10T19:38:06.223Z,99759.25
2019-03-10T19:40:36.028Z,99758.61
2019-03-10T19:43:05.767Z,99762.70
2019-03-10T19:45:37.091Z,99761.88
2019-03-10T19:48:08.979Z,99771.06
2019-03-10T19:50:39.939Z,99775.10
2019-03-10T19:53:10.798Z,99783.66
2019-03-10T19:55:40.979Z,99793.50
2019-03-10T19:58:10.500Z,99798.03
2019-03-10T20:00:40.213Z,99802.89
2019-03-10T20:03:10.007Z,99808.56
2019-03-10T20:05:39.445Z,99819.98
2019-03-10T20:08:09.213Z,99834.09
2019-03-10T20:10:39.970Z,99833.25
2019-03-10T20:13:09.425Z,99838.88
2019-03-10T20:15:39.395Z,99852.38
2019-03-10T20:18:08.898Z,99846.30
2019-03-10T20:20:38.992Z,99863.69
2019-03-10T20:23:08.661Z,99852.83
2019-03-10T20:25:38.299Z,99869.80
2019-03-10T20:28:09.331Z,99879.36
2019-03-10T20:30:39.228Z,99878.95
2019-03-10T20:33:09.165Z,99882.91
2019-03-10T20:35:38.823Z,99886.87
2019-03-10T20:38:08.249Z,99893.56
2019-03-10T20:40:37.821Z,99904.91
2019-03-10T20:43:11.229Z,99912.16
2019-03-10T20:45:40.983Z,99913.56
2019-03-10T20:48:11.290Z,99919.10
2019-03-10T20:50:40.919Z,99930.00
2019-03-10T20:53:12.008Z,99941.92
2019-03-10T20:55:42.280Z,99932.87
2019-03-10T20:58:12.424Z,99939.94
2019-03-10T21:00:42.409Z,99958.34
2019-03-10T21:03:13.108Z,99962.80
2019-03-10T21:05:42.852Z,99979.55
2019-03-10T21:08:14.294Z,99982.16
2019-03-10T21:10:44.021Z,99983.11
2019-03-10T21:13:14.652Z,99985.44
2019-03-10T21:15:44.977Z,99983.31
2019-03-10T21:18:15.049Z,100006.52
2019-03-10T21:20:45.281Z,100000.97
2019-03-10T21:23:15.166Z,100007.27
2019-03-10T21:25:44.977Z,100015.31
2019-03-10T21:28:15.332Z,100015.08
2019-03-10T21:30:45.354Z,100024.72
2019-03-10T21:33:15.333Z,100032.92
2019-03-10T21:35:45.389Z,100039.91
2019-03-10T21:38:15.863Z,100040.03
2019-03-10T21:40:45.857Z,100050.90
2019-03-10T21:43:15.829Z,100049.19
2019-03-10T21:45:46.300Z,100049.19
2019-03-10T21:48:16.680Z,100050.53
2019-03-10T21:50:46.652Z,100048.05
2019-03-10T21:53:16.580Z,100045.92
2019-03-10T21:55:46.301Z,100051.56
2019-03-10T21:58:15.873Z,100050.66
2019-03-10T22:00:45.323Z,100056.34
2019-03-10T22:03:14.992Z,100052.88
2019-03-10T22:05:44.441Z,100059.41
2019-03-10T22:08:13.930Z,100058.95
2019-03-10T22:10:43.520Z,100058.38
2019-03-10T22:13:13.189Z,100061.77
2019-03-10T22:15:42.818Z,100070.38
2019-03-10T22:18:12.243Z,100068.00
2019-03-10T22:20:41.723Z,100076.38
2019-03-10T22:23:11.194Z,100071.56
2019-03-10T22:25:40.783Z,100074.75
2019-03-10T22:28:11.183Z,100075.12
2019-03-10T22:30:40.814Z,100081.73
2019-03-10T22:33:10.249Z,100081.33
2019-03-10T22:35:40.827Z,100083.00
2019-03-10T22:38:10.302Z,100094.89
2019-03-10T22:40:39.939Z,100088.81
2019-03-10T22:43:09.554Z,100090.65
2019-03-10T22:45:39.033Z,100088.98
2019-03-10T22:48:08.485Z,100107.37
2019-03-10T22:50:38.036Z,100098.22
2019-03-10T22:53:07.510Z,100110.97
2019-03-10T22:55:38.569Z,100111.83
2019-03-10T22:58:08.054Z,100117.05
2019-03-10T23:00:51.198Z,100109.21
2019-03-10T23:03:20.921Z,100121.38
2019-03-10T23:05:50.480Z,100125.81
2019-03-10T23:08:19.999Z,100123.81
2019-03-10T23:10:49.563Z,100128.59
2019-03-10T23:13:18.997Z,100137.38
2019-03-10T23:15:48.577Z,100134.44
2019-03-10T23:18:18.061Z,100136.11
2019-03-10T23:20:48.574Z,100138.52
2019-03-10T23:23:18.202Z,100149.25
2019-03-10T23:25:47.822Z,100145.28
2019-03-10T23:28:17.425Z,100139.11
2019-03-10T23:30:46.979Z,100146.41
2019-03-10T23:33:16.554Z,100144.25
2019-03-10T23:35:46.056Z,100143.30
2019-03-10T23:38:15.548Z,100145.34
2019-03-10T23:40:46.109Z,100148.80
2019-03-10T23:43:17.236Z,100148.67
2019-03-10T23:45:46.659Z,100149.16
2019-03-10T23:48:16.135Z,100149.57
2019-03-10T23:50:45.603Z,100158.14
2019-03-10T23:53:15.084Z,100158.05
2019-03-10T23:55:44.529Z,100164.53
2019-03-10T23:58:13.998Z,100161.33
